Observations for ABERDEEN DYCE, United Kingdom (EGPD)

EGPD 221220Z AUTO 13009KT 9999 OVC003 15/14 Q1020 NOSIG 
EGPD 221150Z AUTO 13009KT 9999 OVC003 15/14 Q1020 TEMPO BKN005  
EGPD 221120Z AUTO 13010KT 9999 OVC003 15/14 Q1020 TEMPO BKN005  
EGPD 221050Z AUTO 12010KT 9999 -RA OVC003 15/14 Q1020 RERA TEMPO BKN005 
EGPD 221020Z AUTO 13009KT 7000 -RA OVC003 15/14 Q1021 TEMPO RA  
EGPD 220950Z AUTO 12009KT 9999 -RA OVC004 15/14 Q1021 TEMPO BKN005  
EGPD 220920Z AUTO 12008KT 9999 OVC005 15/14 Q1021 TEMPO BKN004  
EGPD 220850Z AUTO 13008KT 9999 OVC005 15/13 Q1021 TEMPO BKN004  
EGPD 220820Z AUTO 12008KT 9999 OVC005 15/13 Q1021 TEMPO BKN004  
EGPD 220750Z AUTO 13009KT 9999 OVC005 15/13 Q1021 NOSIG 
EGPD 220720Z AUTO 13010KT 9999 OVC004 14/13 Q1021 NOSIG 
EGPD 220650Z AUTO 12008KT 090V160 9999 OVC004 14/13 Q1021 NOSIG 
EGPD 220620Z AUTO 13008KT 9999 OVC004 14/13 Q1020 NOSIG 
EGPD 220550Z AUTO 12008KT 9999 OVC004 14/13 Q1020 NOSIG 
EGPD 220520Z AUTO 12007KT 9999 OVC004 14/13 Q1021 NOSIG 
EGPD 220450Z AUTO 12007KT 9999 OVC003 14/13 Q1021 NOSIG 
EGPD 220420Z AUTO 10008KT 9999 OVC003 14/13 Q1021 NOSIG 
EGPD 220350Z AUTO 12007KT 9999 OVC003 14/13 Q1021 NOSIG 
EGPD 220320Z AUTO 12007KT 9999 OVC004 14/13 Q1021 NOSIG 
EGPD 220250Z AUTO 11006KT 080V150 9999 OVC004 14/13 Q1021 NOSIG 
EGPD 220220Z AUTO 12006KT 090V150 9999 OVC003 14/13 Q1021 BECMG 4000 -DZ BR 
EGPD 220150Z AUTO 12006KT 9999 BKN004 OVC031 14/13 Q1021 BECMG 4000 -DZ BR  
EGPD 220120Z AUTO 12006KT 8000 OVC004 14/13 Q1021 NOSIG 
EGPD 220050Z AUTO 12007KT 9999 BKN005 OVC015 14/13 Q1021
EGPD 220020Z AUTO 12007KT 090V150 9999 BKN004 OVC025 14/13 Q1021 NOSIG  
EGPD 212350Z AUTO 12006KT 9999 BKN003 OVC020 14/13 Q1021 NOSIG  
EGPD 212320Z AUTO 12007KT 080V150 9999 OVC003 14/13 Q1021 NOSIG 
EGPD 212250Z AUTO 12006KT 9999 BKN004 OVC040 14/13 Q1021 NOSIG  
EGPD 212220Z AUTO 12006KT 9999 SCT004 BKN008 BKN014 14/13 Q1021 TEMPO BKN004
EGPD 212150Z AUTO 11005KT 9999 BKN005 BKN009 BKN014 14/13 Q1021 
EGPD 212120Z AUTO 12004KT 9999 BKN005 14/13 Q1021 NOSIG 
EGPD 212050Z AUTO 12005KT 9999 BKN006 BKN009 14/13 Q1021
EGPD 212020Z 12004KT 9999 SCT007 SCT012 13/12 Q1021 TEMPO BKN010
EGPD 211950Z 11005KT 9999 SCT010 13/12 Q1021 TEMPO BKN010   
EGPD 211950Z AUTO 12006KT 9999 BKN010 13/12 Q1021 NOSIG
EGPD 211920Z AUTO 11005KT 9999 NCD 14/12 Q1021 NOSIG
EGPD 211850Z AUTO 13005KT 9999 NCD 14/12 Q1020 NOSIG
EGPD 211820Z AUTO 12006KT 9999 NCD 14/12 Q1020 NOSIG
EGPD 211750Z AUTO 11005KT 9999 FEW011 15/12 Q1020 NOSIG 
EGPD 211720Z AUTO 12006KT 9999 FEW011 15/12 Q1020 TEMPO BKN008  
EGPD 211650Z AUTO 12008KT 090V160 9999 SCT011 15/12 Q1020 TEMPO BKN008  
EGPD 211620Z 12009KT 9999 SCT010 SCT015 15/13 Q1021 BECMG BKN012
EGPD 211550Z 11008KT 090V150 9999 SCT010 15/13 Q1021 BECMG BKN010   
EGPD 211520Z AUTO 11008KT 9999 FEW012 16/13 Q1021 TEMPO BKN012  
EGPD 211450Z AUTO 12011G29KT 9999 FEW013 16/13 Q1021 NOSIG  
EGPD 211420Z AUTO 14009KT 100V170 9999 NCD 16/11 Q1020 NOSIG
EGPD 211350Z AUTO 15009KT 130V190 9999 NCD 17/11 Q1020 NOSIG
EGPD 211320Z AUTO 15012KT 9999 NCD 17/11 Q1021 NOSIG
EGPD 211250Z AUTO 16011KT 9999 SCT046 17/11 Q1021 NOSIG 
EGPD 211220Z 14009KT 080V180 9999 SCT021 SCT027 17/12 Q1021 NOSIG   
EGPD 211150Z 11007KT 080V150 9999 SCT017 17/12 Q1021 NOSIG